createdAt,value
2022-12-17T00:00:03.134Z,-4.60
2022-12-17T00:02:48.374Z,-4.60
2022-12-17T00:05:33.106Z,-4.69
2022-12-17T00:08:18.966Z,-4.72
2022-12-17T00:11:04.123Z,-4.72
2022-12-17T00:13:49.044Z,-4.79
2022-12-17T00:16:35.148Z,-4.76
2022-12-17T00:19:20.107Z,-4.77
2022-12-17T00:22:04.964Z,-4.74
2022-12-17T00:24:49.666Z,-4.78
2022-12-17T00:27:34.655Z,-4.81
2022-12-17T00:30:19.601Z,-4.81
2022-12-17T00:33:04.341Z,-4.83
2022-12-17T00:35:49.367Z,-4.85
2022-12-17T00:38:35.540Z,-4.79
2022-12-17T00:41:20.249Z,-4.83
2022-12-17T00:44:04.930Z,-4.77
2022-12-17T00:46:50.787Z,-4.82
2022-12-17T00:49:37.259Z,-4.90
2022-12-17T00:52:22.325Z,-5.00
2022-12-17T00:55:07.330Z,-5.10
2022-12-17T00:57:59.742Z,-5.09
2022-12-17T01:00:44.823Z,-5.01
2022-12-17T01:03:31.642Z,-5.00
2022-12-17T01:06:21.042Z,-4.96
2022-12-17T01:09:05.710Z,-5.06
2022-12-17T01:11:50.650Z,-5.02
2022-12-17T01:14:37.113Z,-4.94
2022-12-17T01:17:22.209Z,-4.95
2022-12-17T01:20:07.196Z,-4.97
2022-12-17T01:22:52.103Z,-4.90
2022-12-17T01:25:36.996Z,-4.81
2022-12-17T01:28:22.171Z,-4.66
2022-12-17T01:31:07.172Z,-4.53
2022-12-17T01:33:51.916Z,-4.41
2022-12-17T01:36:36.787Z,-4.35
2022-12-17T01:39:22.134Z,-4.29
2022-12-17T01:42:07.297Z,-4.32
2022-12-17T01:45:13.755Z,-4.28
2022-12-17T01:48:07.709Z,-4.25
2022-12-17T01:51:01.948Z,-4.28
2022-12-17T01:53:53.197Z,-4.26
2022-12-17T01:56:38.147Z,-4.29
2022-12-17T01:59:25.493Z,-4.31
2022-12-17T02:02:10.800Z,-4.25
2022-12-17T02:04:56.618Z,-4.26
2022-12-17T02:08:09.848Z,-4.31
2022-12-17T02:11:23.644Z,-4.35
2022-12-17T02:14:35.755Z,-4.31
2022-12-17T02:17:26.690Z,-4.32
2022-12-17T02:20:33.385Z,-4.33
2022-12-17T02:23:40.654Z,-4.34
2022-12-17T02:26:32.060Z,-4.39
2022-12-17T02:29:19.204Z,-4.40
2022-12-17T02:32:06.378Z,-4.46
2022-12-17T02:35:11.191Z,-4.60
2022-12-17T02:37:55.785Z,-4.65
2022-12-17T02:40:42.723Z,-4.61
2022-12-17T02:43:29.078Z,-4.50
2022-12-17T02:46:14.770Z,-4.51
2022-12-17T02:49:00.026Z,-4.57
2022-12-17T02:51:45.069Z,-4.56
2022-12-17T02:54:29.961Z,-4.63
2022-12-17T02:57:14.524Z,-4.53
2022-12-17T02:59:59.512Z,-4.55
2022-12-17T03:02:44.706Z,-4.53
2022-12-17T03:05:44.904Z,-4.56
2022-12-17T03:08:31.284Z,-4.63
2022-12-17T03:11:15.894Z,-4.64
2022-12-17T03:14:00.882Z,-4.72
2022-12-17T03:16:46.150Z,-4.73
2022-12-17T03:19:31.031Z,-4.73
2022-12-17T03:22:15.928Z,-4.76
2022-12-17T03:25:00.704Z,-4.95
2022-12-17T03:27:45.729Z,-4.97
2022-12-17T03:30:35.562Z,-5.05
2022-12-17T03:33:21.324Z,-5.10
2022-12-17T03:36:06.128Z,-5.02
2022-12-17T03:38:50.840Z,-5.01
2022-12-17T03:41:35.909Z,-5.05
2022-12-17T03:44:20.596Z,-5.00
2022-12-17T03:47:05.553Z,-5.04
2022-12-17T03:49:50.502Z,-5.04
2022-12-17T03:52:35.180Z,-5.04
2022-12-17T03:55:20.203Z,-5.06
2022-12-17T03:58:21.636Z,-5.07
2022-12-17T04:01:06.419Z,-5.10
2022-12-17T04:03:51.128Z,-5.10
2022-12-17T04:06:35.875Z,-5.10
2022-12-17T04:09:20.710Z,-5.04
2022-12-17T04:12:05.388Z,-5.03
2022-12-17T04:14:50.290Z,-5.11
2022-12-17T04:17:35.166Z,-5.11
2022-12-17T04:20:19.940Z,-5.17
2022-12-17T04:23:05.165Z,-5.13
2022-12-17T04:25:50.297Z,-5.08
2022-12-17T04:28:35.009Z,-5.08
2022-12-17T04:31:19.786Z,-5.12
2022-12-17T04:34:05.069Z,-5.15
2022-12-17T04:36:49.927Z,-5.15
2022-12-17T04:39:34.625Z,-5.23
2022-12-17T04:42:19.334Z,-5.20
2022-12-17T04:45:04.272Z,-5.22
2022-12-17T04:47:49.130Z,-5.28
2022-12-17T04:50:34.370Z,-5.27
2022-12-17T04:53:21.220Z,-5.34
2022-12-17T04:56:06.765Z,-5.30
2022-12-17T04:58:52.056Z,-5.33
2022-12-17T05:01:37.176Z,-5.35
2022-12-17T05:04:22.475Z,-5.32
2022-12-17T05:07:07.280Z,-5.35
2022-12-17T05:09:52.358Z,-5.37
2022-12-17T05:12:37.159Z,-5.34
2022-12-17T05:15:22.320Z,-5.38
2022-12-17T05:18:07.079Z,-5.41
2022-12-17T05:20:51.816Z,-5.44
2022-12-17T05:23:37.230Z,-5.44
2022-12-17T05:26:26.006Z,-5.39
2022-12-17T05:29:15.599Z,-5.40
2022-12-17T05:32:01.107Z,-5.44
2022-12-17T05:34:45.872Z,-5.46
2022-12-17T05:37:30.500Z,-5.49
2022-12-17T05:40:15.209Z,-5.59
2022-12-17T05:42:59.918Z,-5.59
2022-12-17T05:45:44.876Z,-5.59
2022-12-17T05:48:29.574Z,-5.61
2022-12-17T05:51:14.310Z,-5.68
2022-12-17T05:53:59.024Z,-5.72
2022-12-17T05:56:43.722Z,-5.74
2022-12-17T05:59:28.362Z,-5.75
2022-12-17T06:02:13.196Z,-5.72
2022-12-17T06:05:02.075Z,-5.70
2022-12-17T06:07:47.551Z,-5.69
2022-12-17T06:10:32.868Z,-5.65
2022-12-17T06:13:17.580Z,-5.59
2022-12-17T06:16:06.903Z,-5.62
2022-12-17T06:18:52.758Z,-5.64
2022-12-17T06:21:38.037Z,-5.62
2022-12-17T06:24:23.219Z,-5.66
2022-12-17T06:27:08.540Z,-5.72
2022-12-17T06:29:53.405Z,-5.73
2022-12-17T06:32:38.238Z,-5.68
2022-12-17T06:35:23.390Z,-5.66
2022-12-17T06:38:20.224Z,-5.64
2022-12-17T06:41:05.119Z,-5.66
2022-12-17T06:43:50.220Z,-5.65
2022-12-17T06:46:34.974Z,-5.69
2022-12-17T06:49:19.821Z,-5.69
2022-12-17T06:52:04.505Z,-5.72
2022-12-17T06:54:49.225Z,-5.74
2022-12-17T06:57:37.771Z,-5.79
2022-12-17T07:00:26.253Z,-5.78
2022-12-17T07:03:15.434Z,-5.75
2022-12-17T07:06:01.174Z,-5.76
2022-12-17T07:08:46.336Z,-5.77
2022-12-17T07:11:31.029Z,-5.83
2022-12-17T07:14:15.911Z,-5.87
2022-12-17T07:17:00.555Z,-5.86
2022-12-17T07:19:45.527Z,-5.84
2022-12-17T07:22:30.381Z,-5.83
2022-12-17T07:25:15.175Z,-5.81
2022-12-17T07:28:00.423Z,-5.82
2022-12-17T07:30:45.218Z,-5.85
2022-12-17T07:33:29.885Z,-5.85
2022-12-17T07:36:14.596Z,-5.86
2022-12-17T07:38:59.842Z,-5.81
2022-12-17T07:41:44.770Z,-5.79
2022-12-17T07:44:29.482Z,-5.80
2022-12-17T07:47:14.680Z,-5.77
2022-12-17T07:49:59.574Z,-5.77
2022-12-17T07:52:44.556Z,-5.73
2022-12-17T07:55:29.185Z,-5.78
2022-12-17T07:58:19.452Z,-5.83
2022-12-17T08:01:04.725Z,-5.79
2022-12-17T08:03:50.046Z,-5.78
2022-12-17T08:06:35.150Z,-5.71
2022-12-17T08:09:20.296Z,-5.72
2022-12-17T08:12:05.037Z,-5.79
2022-12-17T08:14:49.719Z,-5.81
2022-12-17T08:17:34.775Z,-5.75
2022-12-17T08:20:19.601Z,-5.73
2022-12-17T08:23:04.925Z,-5.62
2022-12-17T08:25:49.863Z,-5.61
2022-12-17T08:28:50.189Z,-5.52
2022-12-17T08:31:36.698Z,-5.48
2022-12-17T08:34:22.052Z,-5.41
2022-12-17T08:37:06.882Z,-5.36
2022-12-17T08:39:51.850Z,-5.33
2022-12-17T08:42:36.700Z,-5.25
2022-12-17T08:45:21.935Z,-5.14
2022-12-17T08:48:06.628Z,-5.11
2022-12-17T08:50:51.369Z,-5.01
2022-12-17T08:53:36.827Z,-4.99
2022-12-17T08:56:22.154Z,-4.96
2022-12-17T08:59:06.784Z,-4.92
2022-12-17T09:01:52.009Z,-4.88
2022-12-17T09:04:37.274Z,-4.82
2022-12-17T09:07:22.286Z,-4.76
2022-12-17T09:10:07.064Z,-4.74
2022-12-17T09:12:51.959Z,-4.69
2022-12-17T09:15:36.777Z,-4.67
2022-12-17T09:18:21.566Z,-4.62
2022-12-17T09:21:14.146Z,-4.57
2022-12-17T09:23:59.688Z,-4.51
2022-12-17T09:26:44.439Z,-4.47
2022-12-17T09:29:29.307Z,-4.44
2022-12-17T09:32:13.999Z,-4.35
2022-12-17T09:34:58.656Z,-4.34
2022-12-17T09:37:43.763Z,-4.30
2022-12-17T09:40:37.048Z,-4.22
2022-12-17T09:43:35.814Z,-4.12
2022-12-17T09:46:36.354Z,-4.14
2022-12-17T09:49:37.382Z,-4.13
2022-12-17T09:52:38.309Z,-4.04
2022-12-17T09:55:34.344Z,-4.03
2022-12-17T09:58:21.147Z,-3.98
2022-12-17T10:01:07.873Z,-3.91
2022-12-17T10:03:54.931Z,-3.81
2022-12-17T10:06:45.298Z,-3.83
2022-12-17T10:09:33.256Z,-3.78
2022-12-17T10:12:30.027Z,-3.68
2022-12-17T10:15:15.068Z,-3.64
2022-12-17T10:18:00.287Z,-3.60
2022-12-17T10:20:52.249Z,-3.59
2022-12-17T10:23:42.465Z,-3.56
2022-12-17T10:26:28.821Z,-3.56
2022-12-17T10:29:27.743Z,-3.57
2022-12-17T10:32:14.616Z,-3.47
2022-12-17T10:35:05.646Z,-3.41
2022-12-17T10:37:53.492Z,-3.39
2022-12-17T10:40:44.932Z,-3.39
2022-12-17T10:43:51.342Z,-3.38
2022-12-17T10:46:47.960Z,-3.25
2022-12-17T10:49:34.819Z,-3.21
2022-12-17T10:52:23.012Z,-3.16
2022-12-17T10:55:20.537Z,-3.03
2022-12-17T10:58:08.204Z,-2.97
2022-12-17T11:00:56.950Z,-2.91
2022-12-17T11:04:11.995Z,-2.89
2022-12-17T11:07:06.373Z,-2.90
2022-12-17T11:10:09.748Z,-2.87
2022-12-17T11:12:57.016Z,-2.81
2022-12-17T11:15:50.520Z,-2.77
2022-12-17T11:18:46.918Z,-2.70
2022-12-17T11:21:44.852Z,-2.65
2022-12-17T11:24:37.563Z,-2.63
2022-12-17T11:27:26.315Z,-2.58
2022-12-17T11:30:12.096Z,-2.50
2022-12-17T11:33:17.669Z,-2.50
2022-12-17T11:36:15.697Z,-2.44
2022-12-17T11:39:07.660Z,-2.47
2022-12-17T11:42:11.279Z,-2.42
2022-12-17T11:45:05.186Z,-2.44
2022-12-17T11:47:57.534Z,-2.48
2022-12-17T11:50:57.068Z,-2.45
2022-12-17T11:54:05.193Z,-2.34
2022-12-17T11:57:02.103Z,-2.21
2022-12-17T11:59:55.136Z,-2.27
2022-12-17T12:03:07.192Z,-2.23
2022-12-17T12:06:15.896Z,-2.19
2022-12-17T12:09:22.101Z,-2.23
2022-12-17T12:12:37.035Z,-2.20
2022-12-17T12:15:26.651Z,-2.18
2022-12-17T12:18:22.772Z,-2.20
2022-12-17T12:21:28.576Z,-2.16
2022-12-17T12:24:45.351Z,-2.15
2022-12-17T12:27:49.620Z,-2.14
2022-12-17T12:30:39.571Z,-2.17
2022-12-17T12:33:43.334Z,-2.13
2022-12-17T12:36:31.158Z,-2.08
2022-12-17T12:39:16.850Z,-2.02
2022-12-17T12:42:34.313Z,-2.06
2022-12-17T12:45:25.566Z,-2.09
2022-12-17T12:48:25.148Z,-2.01
2022-12-17T12:51:33.617Z,-2.01
2022-12-17T12:54:21.338Z,-2.03
2022-12-17T12:57:06.205Z,-2.08
2022-12-17T12:59:53.686Z,-2.08
2022-12-17T13:02:38.830Z,-2.06
2022-12-17T13:05:33.841Z,-1.98
2022-12-17T13:08:15.723Z,-2.03
2022-12-17T13:10:42.307Z,-2.01
2022-12-17T13:13:18.018Z,-2.01
2022-12-17T13:15:48.877Z,-2.03
2022-12-17T13:18:24.547Z,-2.00
2022-12-17T13:21:00.344Z,-1.94
2022-12-17T13:23:33.544Z,-1.94
2022-12-17T13:26:15.235Z,-1.90
2022-12-17T13:28:42.860Z,-1.88
2022-12-17T13:31:25.226Z,-1.96
2022-12-17T13:34:06.798Z,-1.88
2022-12-17T13:36:46.330Z,-1.86
2022-12-17T13:39:51.765Z,-1.79
2022-12-17T13:42:30.284Z,-1.77
2022-12-17T13:44:57.952Z,-1.84
2022-12-17T13:47:27.790Z,-1.81
2022-12-17T13:50:32.665Z,-1.89
2022-12-17T13:52:44.004Z,-1.89
2022-12-17T13:55:18.478Z,-1.93
2022-12-17T13:57:46.349Z,-1.92
2022-12-17T14:00:22.423Z,-1.92
2022-12-17T14:02:48.971Z,-1.92
2022-12-17T14:05:41.775Z,-1.90
2022-12-17T14:08:08.976Z,-1.90
2022-12-17T14:10:35.504Z,-1.96
2022-12-17T14:13:10.489Z,-1.97
2022-12-17T14:15:37.401Z,-2.06
2022-12-17T14:18:04.654Z,-2.03
2022-12-17T14:20:35.316Z,-2.01
2022-12-17T14:23:15.870Z,-2.09
2022-12-17T14:25:44.201Z,-2.14
2022-12-17T14:28:24.416Z,-2.18
2022-12-17T14:31:25.157Z,-2.21
2022-12-17T14:33:40.771Z,-2.38
2022-12-17T14:36:16.319Z,-2.41
2022-12-17T14:39:11.298Z,-2.44
2022-12-17T14:41:57.276Z,-2.50
2022-12-17T14:44:28.716Z,-2.53
2022-12-17T14:47:13.073Z,-2.57
2022-12-17T14:49:55.609Z,-2.63
2022-12-17T14:52:39.958Z,-2.67
2022-12-17T14:55:39.428Z,-2.66
2022-12-17T14:58:11.761Z,-2.65
2022-12-17T15:00:39.966Z,-2.60
2022-12-17T15:03:11.825Z,-2.64
2022-12-17T15:05:38.315Z,-2.74
2022-12-17T15:08:05.427Z,-2.81
2022-12-17T15:10:31.728Z,-2.82
2022-12-17T15:12:58.093Z,-2.77
2022-12-17T15:15:24.402Z,-2.77
2022-12-17T15:17:50.688Z,-2.78
2022-12-17T15:20:20.104Z,-2.73
2022-12-17T15:22:47.704Z,-2.73
2022-12-17T15:25:16.259Z,-2.81
2022-12-17T15:27:42.600Z,-2.97
2022-12-17T15:30:17.870Z,-3.09
2022-12-17T15:32:45.135Z,-3.11
2022-12-17T15:35:13.075Z,-3.19
2022-12-17T15:37:39.782Z,-3.15
2022-12-17T15:40:06.993Z,-3.22
2022-12-17T15:42:52.096Z,-3.22
2022-12-17T15:45:18.423Z,-3.28
2022-12-17T15:47:44.756Z,-3.29
2022-12-17T15:50:11.195Z,-3.32
2022-12-17T15:52:37.557Z,-3.29
2022-12-17T15:55:04.142Z,-3.31
2022-12-17T15:57:30.566Z,-3.37
2022-12-17T15:59:56.875Z,-3.36
2022-12-17T16:02:23.360Z,-3.46
2022-12-17T16:04:49.854Z,-3.48
2022-12-17T16:07:16.450Z,-3.40
2022-12-17T16:09:42.745Z,-3.37
2022-12-17T16:12:09.107Z,-3.31
2022-12-17T16:14:35.537Z,-3.38
2022-12-17T16:17:01.927Z,-3.35
2022-12-17T16:19:28.298Z,-3.39
2022-12-17T16:21:54.584Z,-3.37
2022-12-17T16:24:21.060Z,-3.41
2022-12-17T16:26:47.392Z,-3.39
2022-12-17T16:29:13.736Z,-3.41
2022-12-17T16:31:40.312Z,-3.44
2022-12-17T16:34:10.850Z,-3.35
2022-12-17T16:36:37.272Z,-3.31
2022-12-17T16:39:04.815Z,-3.37
2022-12-17T16:41:31.974Z,-3.36
2022-12-17T16:43:58.416Z,-3.41
2022-12-17T16:46:32.165Z,-3.38
2022-12-17T16:49:04.018Z,-3.42
2022-12-17T16:51:30.775Z,-3.48
2022-12-17T16:53:58.151Z,-3.54
2022-12-17T16:56:27.608Z,-3.58
2022-12-17T16:58:55.429Z,-3.62
2022-12-17T17:01:24.901Z,-3.61
2022-12-17T17:03:51.388Z,-3.70
2022-12-17T17:06:19.451Z,-3.71
2022-12-17T17:08:45.939Z,-3.75
2022-12-17T17:11:15.429Z,-3.71
2022-12-17T17:13:42.408Z,-3.74
2022-12-17T17:16:10.527Z,-3.76
2022-12-17T17:18:38.243Z,-3.77
2022-12-17T17:21:20.001Z,-3.79
2022-12-17T17:23:47.954Z,-3.82
2022-12-17T17:26:15.011Z,-3.89
2022-12-17T17:28:41.974Z,-3.96
2022-12-17T17:31:11.967Z,-4.05
2022-12-17T17:33:43.013Z,-4.03
2022-12-17T17:36:11.824Z,-4.04
2022-12-17T17:38:40.510Z,-4.07
2022-12-17T17:41:10.085Z,-4.15
2022-12-17T17:43:36.515Z,-4.21
2022-12-17T17:46:12.277Z,-4.21
2022-12-17T17:48:39.012Z,-4.19
2022-12-17T17:51:15.222Z,-4.14
2022-12-17T17:53:42.388Z,-4.18
2022-12-17T17:56:14.989Z,-4.19
2022-12-17T17:58:50.998Z,-4.24
2022-12-17T18:01:20.671Z,-4.26
2022-12-17T18:03:47.153Z,-4.25
2022-12-17T18:06:14.055Z,-4.31
2022-12-17T18:08:41.497Z,-4.33
2022-12-17T18:11:10.281Z,-4.37
2022-12-17T18:13:54.921Z,-4.45
2022-12-17T18:16:22.799Z,-4.45
2022-12-17T18:18:50.090Z,-4.42
2022-12-17T18:21:19.163Z,-4.43
2022-12-17T18:23:46.758Z,-4.53
2022-12-17T18:26:15.065Z,-4.59
2022-12-17T18:28:42.682Z,-4.58
2022-12-17T18:31:24.505Z,-4.55
2022-12-17T18:33:54.172Z,-4.55
2022-12-17T18:36:23.617Z,-4.64
2022-12-17T18:39:01.227Z,-4.71
2022-12-17T18:41:47.239Z,-4.83
2022-12-17T18:44:14.186Z,-4.88
2022-12-17T18:46:40.557Z,-4.90
2022-12-17T18:49:09.613Z,-4.90
2022-12-17T18:51:37.382Z,-4.81
2022-12-17T18:54:08.507Z,-4.79
2022-12-17T18:57:00.162Z,-4.91
2022-12-17T18:59:28.712Z,-4.91
2022-12-17T19:01:56.491Z,-4.95
2022-12-17T19:04:23.979Z,-4.99
2022-12-17T19:06:53.288Z,-5.10
2022-12-17T19:09:29.005Z,-5.09
2022-12-17T19:11:56.127Z,-5.05
2022-12-17T19:14:23.365Z,-5.01
2022-12-17T19:16:51.460Z,-5.07
2022-12-17T19:19:18.931Z,-5.12
2022-12-17T19:21:45.762Z,-5.24
2022-12-17T19:24:17.580Z,-5.29
2022-12-17T19:26:44.820Z,-5.27
2022-12-17T19:29:13.329Z,-5.34
2022-12-17T19:31:40.140Z,-5.42
2022-12-17T19:34:09.538Z,-5.35
2022-12-17T19:36:37.335Z,-5.39
2022-12-17T19:39:06.226Z,-5.39
2022-12-17T19:41:33.171Z,-5.35
2022-12-17T19:44:05.550Z,-5.43
2022-12-17T19:46:33.607Z,-5.42
2022-12-17T19:49:00.138Z,-5.52
2022-12-17T19:51:29.043Z,-5.59
2022-12-17T19:53:56.105Z,-5.64
2022-12-17T19:56:25.992Z,-5.60
2022-12-17T19:58:55.306Z,-5.57
2022-12-17T20:01:24.688Z,-5.56
2022-12-17T20:03:52.243Z,-5.55
2022-12-17T20:06:20.399Z,-5.55
2022-12-17T20:08:46.708Z,-5.70
2022-12-17T20:11:33.280Z,-5.75
2022-12-17T20:14:17.958Z,-5.78
2022-12-17T20:16:46.707Z,-5.76
2022-12-17T20:19:24.948Z,-5.70
2022-12-17T20:21:52.641Z,-5.74
2022-12-17T20:24:19.526Z,-5.69
2022-12-17T20:26:48.405Z,-5.74
2022-12-17T20:29:16.930Z,-5.78
2022-12-17T20:31:48.022Z,-5.88
2022-12-17T20:34:18.114Z,-6.02
2022-12-17T20:36:44.752Z,-6.00
2022-12-17T20:39:11.752Z,-5.98
2022-12-17T20:41:42.055Z,-5.97
2022-12-17T20:44:13.129Z,-5.97
2022-12-17T20:46:41.144Z,-5.98
2022-12-17T20:49:08.367Z,-6.00
2022-12-17T20:51:35.328Z,-5.98
2022-12-17T20:54:03.002Z,-5.94
2022-12-17T20:56:33.917Z,-5.92
2022-12-17T20:59:02.990Z,-5.99
2022-12-17T21:01:31.566Z,-6.06
2022-12-17T21:03:58.768Z,-6.07
2022-12-17T21:06:46.098Z,-6.06
2022-12-17T21:09:14.036Z,-6.02
2022-12-17T21:11:41.148Z,-6.02
2022-12-17T21:14:11.909Z,-6.05
2022-12-17T21:16:39.578Z,-6.05
2022-12-17T21:19:08.415Z,-6.08
2022-12-17T21:21:37.108Z,-6.09
2022-12-17T21:24:04.372Z,-6.12
2022-12-17T21:26:33.666Z,-6.10
2022-12-17T21:29:01.762Z,-6.09
2022-12-17T21:31:40.710Z,-6.07
2022-12-17T21:34:10.753Z,-6.07
2022-12-17T21:36:37.525Z,-6.07
2022-12-17T21:39:09.367Z,-6.05
2022-12-17T21:41:39.337Z,-6.07
2022-12-17T21:44:13.106Z,-6.13
2022-12-17T21:46:41.355Z,-6.12
2022-12-17T21:49:07.919Z,-6.15
2022-12-17T21:51:34.615Z,-6.10
2022-12-17T21:54:08.785Z,-6.08
2022-12-17T21:56:38.445Z,-6.13
2022-12-17T21:59:04.964Z,-6.17
2022-12-17T22:04:12.555Z,-6.21
2022-12-17T22:06:39.741Z,-6.17
2022-12-17T22:09:29.433Z,-6.18
2022-12-17T22:12:23.280Z,-6.21
2022-12-17T22:14:49.690Z,-6.16
2022-12-17T22:17:16.322Z,-6.20
2022-12-17T22:19:42.946Z,-6.24
2022-12-17T22:22:09.271Z,-6.23
2022-12-17T22:24:36.289Z,-6.27
2022-12-17T22:27:03.165Z,-6.25
2022-12-17T22:29:48.118Z,-6.32
2022-12-17T22:32:33.126Z,-6.34
2022-12-17T22:36:09.240Z,-6.37
2022-12-17T22:41:46.514Z,-6.37
2022-12-17T22:44:33.773Z,-6.37
2022-12-17T22:44:39.381Z,-6.35
2022-12-17T22:46:17.106Z,-6.40
2022-12-17T22:48:43.645Z,-6.44
2022-12-17T22:51:19.499Z,-6.47
2022-12-17T22:53:53.999Z,-6.48
2022-12-17T22:56:33.780Z,-6.45
2022-12-17T22:59:07.393Z,-6.44
2022-12-17T23:01:34.696Z,-6.38
2022-12-17T23:04:02.359Z,-6.40
2022-12-17T23:06:29.045Z,-6.40
2022-12-17T23:08:55.979Z,-6.45
2022-12-17T23:11:24.693Z,-6.51
2022-12-17T23:13:51.940Z,-6.53
2022-12-17T23:16:18.949Z,-6.56
2022-12-17T23:18:46.995Z,-6.54
2022-12-17T23:21:19.630Z,-6.52
2022-12-17T23:23:46.142Z,-6.51
2022-12-17T23:26:34.765Z,-6.50
2022-12-17T23:29:05.007Z,-6.49
2022-12-17T23:31:35.197Z,-6.45
2022-12-17T23:34:01.554Z,-6.49
2022-12-17T23:36:27.904Z,-6.39
2022-12-17T23:38:56.607Z,-6.40
2022-12-17T23:41:25.754Z,-6.43
2022-12-17T23:43:53.306Z,-6.50
2022-12-17T23:46:20.650Z,-6.49
2022-12-17T23:48:47.934Z,-6.42
2022-12-17T23:51:17.075Z,-6.43
2022-12-17T23:53:43.984Z,-6.45
2022-12-17T23:56:19.038Z,-6.37
2022-12-17T23:58:46.373Z,-6.37
